Aitkin, Minnesota
Current Conditions -  °F | °C
As of 10:13 AM on Saturday 25 Oct 2014 (Local Time) from KAIT Reporting Station
Clear Clear  
Wind Chill: 54°   Ceiling: Unl
Heat Index: 54°   Visibility: 10mi
Dew Point: 34°   Wind: 7mph
Humidity: 47%   Direction: 260°W
Pressure: 29.98"   Gusts: NA
Location:  46.53°N, 93.71°W
Report Text: KAIT 251513Z AUTO 26006KT 10SM CLR 12/01 A2998 RMK AO2
Loading
Personal Weather Stations






























Interactive Weather Map
Tropical Storm Tracking
New forecast layout! Learn more

10-Day Weather Forecast

Advertisements
Track Severe Weather on mobile